createdAt,value
2018-07-31T00:00:05.321Z,22.33
2018-07-31T00:01:05.497Z,22.26
2018-07-31T00:02:05.665Z,22.28
2018-07-31T00:03:05.848Z,22.25
2018-07-31T00:04:06.025Z,22.15
2018-07-31T00:05:06.215Z,22.22
2018-07-31T00:06:06.400Z,22.23
2018-07-31T00:07:06.585Z,22.18
2018-07-31T00:08:06.763Z,22.22
2018-07-31T00:09:06.945Z,22.28
2018-07-31T00:10:07.132Z,22.29
2018-07-31T00:11:07.313Z,22.29
2018-07-31T00:12:07.489Z,22.32
2018-07-31T00:13:07.663Z,22.30
2018-07-31T00:14:07.842Z,22.32
2018-07-31T00:15:08.011Z,22.33
2018-07-31T00:16:08.189Z,22.22
2018-07-31T00:17:08.388Z,22.20
2018-07-31T00:18:08.563Z,22.25
2018-07-31T00:19:08.742Z,22.22
2018-07-31T00:20:08.931Z,22.17
2018-07-31T00:21:09.107Z,22.11
2018-07-31T00:22:09.288Z,22.18
2018-07-31T00:23:09.477Z,22.18
2018-07-31T00:24:09.651Z,22.14
2018-07-31T00:25:09.830Z,22.23
2018-07-31T00:26:14.635Z,22.25
2018-07-31T00:27:10.119Z,22.17
2018-07-31T00:28:14.105Z,22.22
2018-07-31T00:29:10.517Z,22.13
2018-07-31T00:30:11.073Z,22.11
2018-07-31T00:31:10.952Z,22.17
2018-07-31T00:32:10.989Z,22.06
2018-07-31T00:33:11.176Z,22.13
2018-07-31T00:34:11.353Z,21.99
2018-07-31T00:35:11.534Z,22.00
2018-07-31T00:36:11.719Z,22.00
2018-07-31T00:37:11.918Z,21.99
2018-07-31T00:38:12.084Z,22.00
2018-07-31T00:39:12.264Z,22.10
2018-07-31T00:40:12.446Z,21.98
2018-07-31T00:41:12.629Z,21.98
2018-07-31T00:42:12.813Z,21.89
2018-07-31T00:43:12.995Z,21.93
2018-07-31T00:44:13.179Z,21.99
2018-07-31T00:45:13.372Z,22.02
2018-07-31T00:46:13.553Z,22.10
2018-07-31T00:47:13.729Z,21.96
2018-07-31T00:48:13.913Z,22.00
2018-07-31T00:49:14.092Z,22.14
2018-07-31T00:50:14.271Z,22.10
2018-07-31T00:51:14.748Z,22.07
2018-07-31T00:52:14.565Z,22.00
2018-07-31T00:53:14.746Z,21.98
2018-07-31T00:54:14.930Z,21.96
2018-07-31T00:55:15.118Z,22.02
2018-07-31T00:56:15.301Z,22.00
2018-07-31T00:57:15.481Z,22.06
2018-07-31T00:58:15.671Z,22.04
2018-07-31T00:59:15.858Z,22.07
2018-07-31T01:00:16.061Z,22.13
2018-07-31T01:01:16.212Z,21.98
2018-07-31T01:02:16.398Z,21.80
2018-07-31T01:03:16.583Z,21.66
2018-07-31T01:04:16.762Z,21.66
2018-07-31T01:05:16.940Z,21.76
2018-07-31T01:06:17.124Z,21.69
2018-07-31T01:07:17.303Z,21.83
2018-07-31T01:08:17.484Z,21.85
2018-07-31T01:09:17.678Z,21.76
2018-07-31T01:10:17.851Z,21.75
2018-07-31T01:11:18.044Z,21.62
2018-07-31T01:12:18.218Z,21.69
2018-07-31T01:13:18.402Z,21.80
2018-07-31T01:14:18.583Z,21.70
2018-07-31T01:15:18.774Z,21.55
2018-07-31T01:16:18.957Z,21.67
2018-07-31T01:17:19.139Z,21.62
2018-07-31T01:18:19.320Z,21.54
2018-07-31T01:19:19.493Z,21.42
2018-07-31T01:20:19.674Z,21.45
2018-07-31T01:21:19.849Z,21.35
2018-07-31T01:22:20.033Z,21.40
2018-07-31T01:23:20.210Z,21.33
2018-07-31T01:24:20.386Z,21.32
2018-07-31T01:25:20.574Z,21.29
2018-07-31T01:26:20.747Z,21.30
2018-07-31T01:27:20.925Z,21.30
2018-07-31T01:28:21.104Z,21.32
2018-07-31T01:29:26.019Z,21.32
2018-07-31T01:30:21.450Z,21.35
2018-07-31T01:31:21.641Z,21.17
2018-07-31T01:32:21.820Z,21.00
2018-07-31T01:33:22.003Z,20.95
2018-07-31T01:34:22.192Z,21.00
2018-07-31T01:35:22.385Z,20.97
2018-07-31T01:36:22.578Z,21.02
2018-07-31T01:37:22.765Z,20.97
2018-07-31T01:38:22.948Z,20.88
2018-07-31T01:39:23.140Z,20.99
2018-07-31T01:40:23.317Z,20.82
2018-07-31T01:41:23.499Z,20.92
2018-07-31T01:42:23.677Z,20.90
2018-07-31T01:43:23.853Z,20.90
2018-07-31T01:44:24.030Z,20.93
2018-07-31T01:45:24.232Z,20.88
2018-07-31T01:46:24.382Z,21.00
2018-07-31T01:47:24.555Z,20.88
2018-07-31T01:48:24.736Z,20.95
2018-07-31T01:49:24.916Z,20.95
2018-07-31T01:50:25.101Z,20.92
2018-07-31T01:51:25.280Z,21.00
2018-07-31T01:52:25.457Z,20.97
2018-07-31T01:53:25.642Z,20.90
2018-07-31T01:54:25.819Z,20.97
2018-07-31T01:55:25.998Z,20.85
2018-07-31T01:56:26.182Z,21.00
2018-07-31T01:57:26.357Z,20.97
2018-07-31T01:58:26.542Z,20.84
2018-07-31T01:59:26.719Z,20.81
2018-07-31T02:00:26.902Z,20.77
2018-07-31T02:01:27.096Z,20.74
2018-07-31T02:02:27.288Z,20.85
2018-07-31T02:03:27.465Z,20.81
2018-07-31T02:04:27.643Z,20.75
2018-07-31T02:05:27.846Z,20.80
2018-07-31T02:06:28.029Z,20.72
2018-07-31T02:07:28.208Z,20.78
2018-07-31T02:08:28.405Z,20.55
2018-07-31T02:09:28.581Z,20.63
2018-07-31T02:10:28.762Z,20.59
2018-07-31T02:11:28.930Z,20.60
2018-07-31T02:12:29.114Z,20.60
2018-07-31T02:13:29.297Z,20.56
2018-07-31T02:14:29.478Z,20.55
2018-07-31T02:15:29.657Z,20.62
2018-07-31T02:16:29.855Z,20.48
2018-07-31T02:17:30.027Z,20.41
2018-07-31T02:18:30.213Z,20.31
2018-07-31T02:19:30.392Z,20.31
2018-07-31T02:20:30.577Z,20.32
2018-07-31T02:21:30.758Z,20.34
2018-07-31T02:22:30.948Z,20.34
2018-07-31T02:23:31.128Z,20.32
2018-07-31T02:24:31.316Z,20.32
2018-07-31T02:25:31.511Z,20.37
2018-07-31T02:26:31.690Z,20.14
2018-07-31T02:27:31.867Z,20.19
2018-07-31T02:28:32.114Z,20.26
2018-07-31T02:29:32.237Z,20.16
2018-07-31T02:30:32.416Z,20.21
2018-07-31T02:31:36.452Z,20.34
2018-07-31T02:32:32.763Z,20.14
2018-07-31T02:33:32.940Z,20.21
2018-07-31T02:34:33.119Z,20.18
2018-07-31T02:35:33.300Z,20.21
2018-07-31T02:36:33.487Z,20.07
2018-07-31T02:37:33.662Z,20.02
2018-07-31T02:38:33.832Z,20.00
2018-07-31T02:39:34.017Z,19.92
2018-07-31T02:40:34.210Z,19.96
2018-07-31T02:41:34.391Z,20.03
2018-07-31T02:42:39.172Z,19.96
2018-07-31T02:43:39.139Z,20.02
2018-07-31T02:44:39.289Z,19.89
2018-07-31T02:45:38.597Z,19.92
2018-07-31T02:46:39.495Z,19.99
2018-07-31T02:47:40.357Z,19.94
2018-07-31T02:48:40.117Z,19.91
2018-07-31T02:49:38.558Z,19.89
2018-07-31T02:50:40.043Z,19.91
2018-07-31T02:51:36.300Z,19.96
2018-07-31T02:52:36.096Z,19.94
2018-07-31T02:53:37.557Z,19.92
2018-07-31T02:54:36.571Z,20.09
2018-07-31T02:55:36.672Z,20.10
2018-07-31T02:56:37.548Z,20.03
2018-07-31T02:57:38.186Z,19.95
2018-07-31T02:58:38.675Z,20.04
2018-07-31T02:59:37.926Z,19.88
2018-07-31T03:00:37.355Z,19.95
2018-07-31T03:01:41.635Z,19.92
2018-07-31T03:02:37.729Z,19.88
2018-07-31T03:03:37.928Z,19.94
2018-07-31T03:04:38.099Z,20.00
2018-07-31T03:05:38.288Z,19.95
2018-07-31T03:06:38.467Z,20.03
2018-07-31T03:07:38.651Z,19.96
2018-07-31T03:08:38.842Z,19.86
2018-07-31T03:09:39.021Z,19.86
2018-07-31T03:10:39.212Z,19.85
2018-07-31T03:11:39.395Z,19.88
2018-07-31T03:12:39.570Z,19.88
2018-07-31T03:13:39.753Z,20.00
2018-07-31T03:14:39.928Z,19.84
2018-07-31T03:15:40.125Z,19.84
2018-07-31T03:16:40.313Z,19.85
2018-07-31T03:17:40.494Z,19.89
2018-07-31T03:18:40.675Z,19.79
2018-07-31T03:19:40.880Z,19.74
2018-07-31T03:20:41.060Z,19.86
2018-07-31T03:21:41.232Z,19.71
2018-07-31T03:22:41.421Z,19.82
2018-07-31T03:23:41.588Z,19.77
2018-07-31T03:24:41.763Z,19.66
2018-07-31T03:25:41.945Z,19.71
2018-07-31T03:26:42.126Z,19.69
2018-07-31T03:27:42.309Z,19.54
2018-07-31T03:28:42.492Z,19.73
2018-07-31T03:29:42.663Z,19.66
2018-07-31T03:30:42.855Z,19.67
2018-07-31T03:31:43.023Z,19.81
2018-07-31T03:32:43.203Z,19.82
2018-07-31T03:33:43.396Z,19.71
2018-07-31T03:34:43.593Z,19.54
2018-07-31T03:35:43.773Z,19.67
2018-07-31T03:36:43.959Z,19.56
2018-07-31T03:37:44.149Z,19.81
2018-07-31T03:38:44.327Z,19.73
2018-07-31T03:39:44.507Z,19.71
2018-07-31T03:40:44.688Z,19.59
2018-07-31T03:41:44.937Z,19.55
2018-07-31T03:42:44.993Z,19.66
2018-07-31T03:43:45.172Z,19.70
2018-07-31T03:44:45.347Z,19.64
2018-07-31T03:45:45.535Z,19.76
2018-07-31T03:46:45.716Z,19.66
2018-07-31T03:47:45.902Z,19.69
2018-07-31T03:48:46.090Z,19.59
2018-07-31T03:49:46.275Z,19.73
2018-07-31T03:50:46.465Z,19.69
2018-07-31T03:51:46.654Z,19.73
2018-07-31T03:52:46.836Z,19.66
2018-07-31T03:53:47.021Z,19.54
2018-07-31T03:54:47.200Z,19.55
2018-07-31T03:55:47.381Z,19.59
2018-07-31T03:56:47.551Z,19.63
2018-07-31T03:57:47.742Z,19.51
2018-07-31T03:58:47.922Z,19.54
2018-07-31T03:59:48.098Z,19.63
2018-07-31T04:00:48.279Z,19.67
2018-07-31T04:01:48.451Z,19.74
2018-07-31T04:02:48.629Z,19.63
2018-07-31T04:03:48.810Z,19.64
2018-07-31T04:04:48.994Z,19.69
2018-07-31T04:05:49.197Z,19.56
2018-07-31T04:06:49.395Z,19.51
2018-07-31T04:07:49.580Z,19.48
2018-07-31T04:08:49.761Z,19.39
2018-07-31T04:09:49.939Z,19.37
2018-07-31T04:10:50.119Z,19.33
2018-07-31T04:11:50.303Z,19.34
2018-07-31T04:12:50.492Z,19.36
2018-07-31T04:13:50.669Z,19.30
2018-07-31T04:14:50.859Z,19.47
2018-07-31T04:15:51.036Z,19.45
2018-07-31T04:16:51.272Z,19.44
2018-07-31T04:17:51.411Z,19.47
2018-07-31T04:18:51.599Z,19.44
2018-07-31T04:19:51.786Z,19.55
2018-07-31T04:20:51.974Z,19.67
2018-07-31T04:21:52.158Z,19.54
2018-07-31T04:22:52.335Z,19.54
2018-07-31T04:23:52.517Z,19.54
2018-07-31T04:24:52.717Z,19.59
2018-07-31T04:25:52.878Z,19.77
2018-07-31T04:26:53.059Z,19.58
2018-07-31T04:27:54.076Z,19.66
2018-07-31T04:28:54.740Z,19.66
2018-07-31T04:29:54.220Z,19.73
2018-07-31T04:30:57.878Z,19.71
2018-07-31T04:31:54.644Z,19.70
2018-07-31T04:32:54.594Z,19.67
2018-07-31T04:33:55.585Z,19.58
2018-07-31T04:34:58.444Z,19.69
2018-07-31T04:35:56.187Z,19.66
2018-07-31T04:36:56.808Z,19.58
2018-07-31T04:37:56.781Z,19.47
2018-07-31T04:38:57.411Z,19.51
2018-07-31T04:39:56.846Z,19.55
2018-07-31T04:40:57.632Z,19.58
2018-07-31T04:41:58.220Z,19.48
2018-07-31T04:42:58.061Z,19.48
2018-07-31T04:43:57.667Z,19.37
2018-07-31T04:44:57.742Z,19.40
2018-07-31T04:45:57.530Z,19.41
2018-07-31T04:46:58.739Z,19.51
2018-07-31T04:47:58.338Z,19.51
2018-07-31T04:48:59.591Z,19.49
2018-07-31T04:49:59.017Z,19.58
2018-07-31T04:50:59.082Z,19.63
2018-07-31T04:51:58.885Z,19.76
2018-07-31T04:52:58.848Z,19.69
2018-07-31T04:53:58.974Z,19.59
2018-07-31T04:54:59.787Z,19.84
2018-07-31T04:55:58.932Z,19.82
2018-07-31T04:56:59.182Z,19.86
2018-07-31T04:57:58.483Z,19.92
2018-07-31T04:58:58.653Z,19.91
2018-07-31T04:59:58.863Z,19.88
2018-07-31T05:00:59.108Z,19.88
2018-07-31T05:01:59.188Z,19.95
2018-07-31T05:03:01.002Z,20.02
2018-07-31T05:04:00.403Z,20.03
2018-07-31T05:05:00.797Z,20.13
2018-07-31T05:06:01.435Z,20.22
2018-07-31T05:07:01.099Z,20.18
2018-07-31T05:08:00.953Z,20.29
2018-07-31T05:09:01.847Z,20.31
2018-07-31T05:10:01.935Z,20.47
2018-07-31T05:11:01.107Z,20.48
2018-07-31T05:12:01.363Z,20.47
2018-07-31T05:13:01.782Z,20.43
2018-07-31T05:14:01.199Z,20.56
2018-07-31T05:15:02.077Z,20.62
2018-07-31T05:16:03.163Z,20.60
2018-07-31T05:17:04.540Z,20.74
2018-07-31T05:18:03.804Z,20.69
2018-07-31T05:19:04.428Z,20.81
2018-07-31T05:20:04.284Z,20.69
2018-07-31T05:21:03.813Z,20.85
2018-07-31T05:22:04.570Z,20.85
2018-07-31T05:23:03.930Z,20.81
2018-07-31T05:24:04.607Z,20.85
2018-07-31T05:25:05.582Z,20.88
2018-07-31T05:26:04.278Z,20.93
2018-07-31T05:27:04.735Z,20.99
2018-07-31T05:28:04.876Z,21.07
2018-07-31T05:29:04.850Z,21.00
2018-07-31T05:30:05.454Z,21.06
2018-07-31T05:31:05.705Z,21.15
2018-07-31T05:32:05.097Z,21.18
2018-07-31T05:33:05.167Z,21.00
2018-07-31T05:34:04.697Z,21.18
2018-07-31T05:35:05.766Z,21.29
2018-07-31T05:36:08.585Z,21.45
2018-07-31T05:37:05.858Z,21.51
2018-07-31T05:38:06.175Z,21.69
2018-07-31T05:39:06.580Z,21.69
2018-07-31T05:40:06.642Z,21.82
2018-07-31T05:41:06.256Z,21.62
2018-07-31T05:42:06.708Z,21.80
2018-07-31T05:43:07.143Z,22.08
2018-07-31T05:44:06.382Z,22.08
2018-07-31T05:45:06.787Z,22.28
2018-07-31T05:46:06.709Z,22.29
2018-07-31T05:47:07.583Z,22.43
2018-07-31T05:48:08.055Z,22.54
2018-07-31T05:49:08.492Z,22.57
2018-07-31T05:50:07.526Z,22.69
2018-07-31T05:51:07.783Z,22.73
2018-07-31T05:52:07.696Z,22.81
2018-07-31T05:53:08.583Z,22.96
2018-07-31T05:54:08.368Z,22.87
2018-07-31T05:55:09.409Z,22.98
2018-07-31T05:56:09.158Z,23.09
2018-07-31T05:57:08.896Z,23.20
2018-07-31T05:58:08.630Z,23.28
2018-07-31T05:59:08.879Z,23.23
2018-07-31T06:00:09.007Z,23.41
2018-07-31T06:01:10.432Z,23.43
2018-07-31T06:02:09.960Z,23.34
2018-07-31T06:03:09.254Z,23.25
2018-07-31T06:04:09.849Z,23.34
2018-07-31T06:05:10.164Z,23.34
2018-07-31T06:06:10.616Z,23.41
2018-07-31T06:07:10.393Z,23.46
2018-07-31T06:08:10.948Z,23.44
2018-07-31T06:09:11.015Z,23.54
2018-07-31T06:10:12.278Z,23.61
2018-07-31T06:11:12.671Z,23.73
2018-07-31T06:12:14.347Z,23.92
2018-07-31T06:13:11.640Z,24.03
2018-07-31T06:14:11.862Z,24.03
2018-07-31T06:15:12.795Z,24.03
2018-07-31T06:16:12.864Z,24.08
2018-07-31T06:17:12.763Z,24.13
2018-07-31T06:18:16.538Z,24.10
2018-07-31T06:19:14.597Z,24.33
2018-07-31T06:20:14.515Z,24.38
2018-07-31T06:21:17.033Z,24.33
2018-07-31T06:22:13.987Z,24.40
2018-07-31T06:23:14.205Z,24.35
2018-07-31T06:24:14.127Z,24.36
2018-07-31T06:25:13.790Z,24.48
2018-07-31T06:26:14.114Z,24.57
2018-07-31T06:27:14.043Z,24.53
2018-07-31T06:28:14.936Z,24.60
2018-07-31T06:29:14.822Z,24.85
2018-07-31T06:30:15.256Z,24.98
2018-07-31T06:31:14.791Z,24.92
2018-07-31T06:32:15.290Z,25.01
2018-07-31T06:33:15.834Z,25.17
2018-07-31T06:34:15.227Z,25.26
2018-07-31T06:35:15.657Z,25.36
2018-07-31T06:36:15.419Z,25.53
2018-07-31T06:37:15.918Z,25.60
2018-07-31T06:38:15.870Z,25.77
2018-07-31T06:39:15.766Z,25.83
2018-07-31T06:40:16.254Z,25.88
2018-07-31T06:41:16.220Z,26.02
2018-07-31T06:42:17.119Z,26.18
2018-07-31T06:43:16.882Z,26.21
2018-07-31T06:44:17.446Z,26.29
2018-07-31T06:45:17.014Z,26.33
2018-07-31T06:46:17.622Z,26.47
2018-07-31T06:47:17.597Z,26.48
2018-07-31T06:48:17.286Z,26.53
2018-07-31T06:49:17.669Z,26.60
2018-07-31T06:50:17.806Z,26.84
2018-07-31T06:51:17.863Z,26.96
2018-07-31T06:52:17.982Z,27.07
2018-07-31T06:53:18.990Z,27.26
2018-07-31T06:54:18.499Z,27.59
2018-07-31T06:55:18.407Z,27.65
2018-07-31T06:56:19.748Z,27.64
2018-07-31T06:57:18.910Z,27.58
2018-07-31T06:58:19.210Z,27.70
2018-07-31T06:59:23.836Z,27.68
2018-07-31T07:00:22.207Z,27.75
2018-07-31T07:01:20.759Z,28.04
2018-07-31T07:02:21.120Z,28.19
2018-07-31T07:03:20.145Z,27.92
2018-07-31T07:04:21.636Z,27.85
2018-07-31T07:05:23.080Z,27.75
2018-07-31T07:06:20.852Z,28.10
2018-07-31T07:07:21.804Z,28.15
2018-07-31T07:08:21.715Z,28.27
2018-07-31T07:09:21.028Z,28.26
2018-07-31T07:10:21.979Z,28.32
2018-07-31T07:11:21.444Z,28.57
2018-07-31T07:12:21.909Z,28.59
2018-07-31T07:13:22.033Z,28.57
2018-07-31T07:14:22.337Z,28.67
2018-07-31T07:15:22.410Z,28.60
2018-07-31T07:16:22.167Z,28.56
2018-07-31T07:17:22.874Z,28.66
2018-07-31T07:18:22.438Z,28.67
2018-07-31T07:19:22.650Z,28.91
2018-07-31T07:20:22.685Z,28.89
2018-07-31T07:21:22.874Z,28.94
2018-07-31T07:22:23.320Z,29.35
2018-07-31T07:23:24.096Z,29.45
2018-07-31T07:24:25.206Z,29.53
2018-07-31T07:25:24.776Z,29.76
2018-07-31T07:26:24.976Z,30.00
2018-07-31T07:27:23.728Z,30.46
2018-07-31T07:28:25.937Z,30.81
2018-07-31T07:29:25.728Z,31.17
2018-07-31T07:30:24.707Z,31.71
2018-07-31T07:31:24.587Z,32.27
2018-07-31T07:32:25.922Z,31.96
2018-07-31T07:33:25.933Z,31.51
2018-07-31T07:34:25.415Z,31.47
2018-07-31T07:35:27.309Z,31.77
2018-07-31T07:36:25.387Z,31.76
2018-07-31T07:37:26.039Z,31.77
2018-07-31T07:38:26.591Z,31.61
2018-07-31T07:39:27.302Z,31.65
2018-07-31T07:40:27.126Z,31.55
2018-07-31T07:41:27.101Z,31.22
2018-07-31T07:42:27.221Z,31.12
2018-07-31T07:43:26.864Z,31.15
2018-07-31T07:44:26.493Z,31.40
2018-07-31T07:45:27.317Z,31.69
2018-07-31T07:46:26.863Z,31.77
2018-07-31T07:47:26.872Z,31.64
2018-07-31T07:48:27.478Z,32.34
2018-07-31T07:49:27.934Z,32.46
2018-07-31T07:50:28.151Z,33.59
2018-07-31T07:51:27.864Z,33.95
2018-07-31T07:52:28.417Z,34.57
2018-07-31T07:53:29.102Z,34.57
2018-07-31T07:54:28.214Z,34.73
2018-07-31T07:55:28.006Z,34.85
2018-07-31T07:56:28.200Z,35.17
2018-07-31T07:57:28.721Z,35.08
2018-07-31T07:58:30.531Z,34.75
2018-07-31T07:59:29.068Z,35.46
2018-07-31T08:00:29.040Z,35.27
2018-07-31T08:01:29.365Z,35.12
2018-07-31T08:02:29.446Z,35.78
2018-07-31T08:03:29.433Z,35.92
2018-07-31T08:04:29.620Z,36.35
2018-07-31T08:05:29.835Z,36.58
2018-07-31T08:06:30.011Z,36.80
2018-07-31T08:07:30.194Z,37.21
2018-07-31T08:08:30.584Z,37.37
2018-07-31T08:09:30.737Z,37.51
2018-07-31T08:10:30.669Z,37.59
2018-07-31T08:11:30.860Z,37.67
2018-07-31T08:12:31.062Z,37.84
2018-07-31T08:13:31.374Z,37.86
2018-07-31T08:14:31.628Z,37.86
2018-07-31T08:15:31.585Z,37.84
2018-07-31T08:16:31.779Z,37.97
2018-07-31T08:17:31.971Z,38.12
2018-07-31T08:18:32.164Z,38.11
2018-07-31T08:19:32.356Z,38.11
2018-07-31T08:20:32.542Z,38.06
2018-07-31T08:21:32.740Z,38.14
2018-07-31T08:22:32.990Z,38.43
2018-07-31T08:23:33.162Z,38.49
2018-07-31T08:24:33.405Z,38.52
2018-07-31T08:25:33.600Z,38.54
2018-07-31T08:26:33.768Z,38.64
2018-07-31T08:27:33.957Z,39.03
2018-07-31T08:28:34.136Z,39.18
2018-07-31T08:29:34.330Z,39.44
2018-07-31T08:30:34.529Z,39.43
2018-07-31T08:31:34.724Z,39.63
2018-07-31T08:32:34.913Z,39.63
2018-07-31T08:33:35.140Z,39.68
2018-07-31T08:34:35.362Z,39.92
2018-07-31T08:35:35.431Z,39.89
2018-07-31T08:36:35.697Z,40.12
2018-07-31T08:37:37.293Z,40.18
2018-07-31T08:38:35.984Z,40.09
2018-07-31T08:39:38.256Z,40.33
2018-07-31T08:40:36.350Z,40.62
2018-07-31T08:41:36.545Z,40.82
2018-07-31T08:42:36.771Z,41.37
2018-07-31T08:43:36.957Z,41.60
2018-07-31T08:44:37.145Z,41.83
2018-07-31T08:45:37.331Z,42.04
2018-07-31T08:46:37.518Z,41.77
2018-07-31T08:47:37.719Z,41.92
2018-07-31T08:48:37.904Z,41.74
2018-07-31T08:49:38.120Z,41.91
2018-07-31T08:50:38.286Z,42.21
2018-07-31T08:51:38.480Z,42.48
2018-07-31T08:52:38.675Z,42.50
2018-07-31T08:53:38.865Z,42.73
2018-07-31T08:54:39.055Z,43.03
2018-07-31T08:55:39.280Z,43.23
2018-07-31T08:56:39.435Z,43.33
2018-07-31T08:57:39.629Z,43.62
2018-07-31T08:58:39.828Z,43.89
2018-07-31T08:59:40.016Z,43.92
2018-07-31T09:00:40.207Z,44.11
2018-07-31T09:01:40.395Z,43.86
2018-07-31T09:02:40.773Z,44.17
2018-07-31T09:03:40.754Z,44.37
2018-07-31T09:04:41.114Z,44.40
2018-07-31T09:05:41.398Z,44.47
2018-07-31T09:06:41.241Z,44.55
2018-07-31T09:07:41.705Z,44.59
2018-07-31T09:08:41.806Z,44.65
2018-07-31T09:09:42.006Z,44.64
2018-07-31T09:10:41.838Z,44.65
2018-07-31T09:11:42.091Z,44.79
2018-07-31T09:12:42.343Z,44.93
2018-07-31T09:13:42.667Z,45.15
2018-07-31T09:14:42.627Z,44.94
2018-07-31T09:15:43.041Z,45.09
2018-07-31T09:16:42.849Z,45.24
2018-07-31T09:17:43.340Z,45.35
2018-07-31T09:18:43.245Z,45.37
2018-07-31T09:19:43.455Z,45.27
2018-07-31T09:20:43.951Z,45.44
2018-07-31T09:21:43.997Z,45.44
2018-07-31T09:22:44.152Z,45.18
2018-07-31T09:23:46.278Z,45.20
2018-07-31T09:24:44.968Z,45.12
2018-07-31T09:25:44.883Z,45.27
2018-07-31T09:26:45.026Z,45.35
2018-07-31T09:27:45.129Z,45.56
2018-07-31T09:28:45.205Z,45.58
2018-07-31T09:29:45.344Z,45.77
2018-07-31T09:30:46.036Z,45.96
2018-07-31T09:31:45.824Z,46.38
2018-07-31T09:32:46.047Z,46.55
2018-07-31T09:33:46.281Z,46.39
2018-07-31T09:34:46.533Z,46.35
2018-07-31T09:35:46.525Z,46.39
2018-07-31T09:36:46.506Z,46.22
2018-07-31T09:37:46.875Z,46.39
2018-07-31T09:38:47.008Z,46.43
2018-07-31T09:39:47.251Z,46.35
2018-07-31T09:40:47.465Z,46.42
2018-07-31T09:41:49.019Z,46.22
2018-07-31T09:42:47.955Z,46.26
2018-07-31T09:43:47.851Z,46.50
2018-07-31T09:44:48.175Z,46.39
2018-07-31T09:45:48.154Z,45.82
2018-07-31T09:46:48.543Z,45.92
2018-07-31T09:47:48.744Z,46.23
2018-07-31T09:48:48.755Z,46.24
2018-07-31T09:49:49.135Z,46.43
2018-07-31T09:50:49.224Z,46.19
2018-07-31T09:51:49.246Z,46.50
2018-07-31T09:52:49.602Z,46.36
2018-07-31T09:53:50.032Z,46.41
2018-07-31T09:54:49.733Z,46.39
2018-07-31T09:55:49.938Z,46.42
2018-07-31T09:56:50.127Z,46.70
2018-07-31T09:57:50.314Z,46.91
2018-07-31T09:58:50.513Z,46.92
2018-07-31T09:59:50.710Z,47.11
2018-07-31T10:00:51.417Z,47.27
2018-07-31T10:01:51.131Z,47.66
2018-07-31T10:02:51.319Z,47.88
2018-07-31T10:03:51.528Z,47.64
2018-07-31T10:04:51.736Z,47.69
2018-07-31T10:05:51.930Z,47.62
2018-07-31T10:06:52.123Z,47.32
2018-07-31T10:07:52.312Z,47.33
2018-07-31T10:08:52.545Z,47.06
2018-07-31T10:09:52.742Z,46.95
2018-07-31T10:10:53.074Z,46.85
2018-07-31T10:11:53.224Z,46.98
2018-07-31T10:12:53.386Z,47.33
2018-07-31T10:13:53.605Z,47.39
2018-07-31T10:14:53.927Z,47.27
2018-07-31T10:15:55.273Z,47.26
2018-07-31T10:16:54.305Z,47.65
2018-07-31T10:17:54.423Z,47.81
2018-07-31T10:18:55.783Z,47.80
2018-07-31T10:19:54.567Z,47.62
2018-07-31T10:20:54.757Z,47.42
2018-07-31T10:21:54.957Z,47.34
2018-07-31T10:22:55.152Z,47.58
2018-07-31T10:23:55.343Z,47.75
2018-07-31T10:24:55.530Z,47.83
2018-07-31T10:25:55.724Z,48.03
2018-07-31T10:26:55.924Z,48.33
2018-07-31T10:27:59.086Z,47.99
2018-07-31T10:28:59.289Z,47.93
2018-07-31T10:29:57.851Z,47.83
2018-07-31T10:30:56.685Z,48.03
2018-07-31T10:31:56.769Z,48.25
2018-07-31T10:32:56.994Z,48.05
2018-07-31T10:33:57.194Z,48.38
2018-07-31T10:34:57.403Z,48.68
2018-07-31T10:35:57.594Z,48.94
2018-07-31T10:36:57.793Z,49.02
2018-07-31T10:37:57.983Z,48.29
2018-07-31T10:38:58.182Z,48.47
2018-07-31T10:39:58.377Z,47.68
2018-07-31T10:40:58.576Z,46.91
2018-07-31T10:41:58.770Z,46.13
2018-07-31T10:42:58.969Z,45.48
2018-07-31T10:43:59.255Z,45.27
2018-07-31T10:44:59.364Z,45.08
2018-07-31T10:45:59.555Z,44.68
2018-07-31T10:46:59.746Z,44.49
2018-07-31T10:47:59.961Z,44.84
2018-07-31T10:49:00.218Z,45.10
2018-07-31T10:50:00.349Z,45.24
2018-07-31T10:51:00.600Z,45.40
2018-07-31T10:52:00.771Z,45.16
2018-07-31T10:53:00.965Z,45.15
2018-07-31T10:54:01.159Z,45.78
2018-07-31T10:55:01.401Z,46.45
2018-07-31T10:56:01.559Z,46.22
2018-07-31T10:57:01.747Z,46.61
2018-07-31T10:58:01.961Z,46.80
2018-07-31T10:59:02.122Z,46.86
2018-07-31T11:00:02.590Z,46.29
2018-07-31T11:01:02.860Z,45.77
2018-07-31T11:02:02.723Z,46.39
2018-07-31T11:03:02.969Z,46.35
2018-07-31T11:04:03.214Z,46.88
2018-07-31T11:05:03.332Z,46.94
2018-07-31T11:06:03.520Z,46.98
2018-07-31T11:07:03.721Z,47.23
2018-07-31T11:08:04.403Z,47.65
2018-07-31T11:09:04.268Z,47.78
2018-07-31T11:10:04.312Z,47.95
2018-07-31T11:11:05.057Z,47.01
2018-07-31T11:12:04.511Z,47.49
2018-07-31T11:13:04.716Z,47.34
2018-07-31T11:14:05.004Z,47.66
2018-07-31T11:15:05.087Z,47.90
2018-07-31T11:16:05.285Z,47.81
2018-07-31T11:17:05.483Z,47.71
2018-07-31T11:18:05.671Z,47.56
2018-07-31T11:19:05.865Z,47.13
2018-07-31T11:20:06.045Z,47.50
2018-07-31T11:21:06.287Z,47.45
2018-07-31T11:22:06.490Z,47.22
2018-07-31T11:23:06.855Z,46.96
2018-07-31T11:24:06.761Z,46.94
2018-07-31T11:25:07.194Z,47.10
2018-07-31T11:26:07.506Z,47.10
2018-07-31T11:27:10.381Z,47.44
2018-07-31T11:28:08.826Z,47.52
2018-07-31T11:29:09.130Z,47.34
2018-07-31T11:30:09.510Z,47.32
2018-07-31T11:31:09.672Z,47.41
2018-07-31T11:32:10.533Z,47.34
2018-07-31T11:33:09.159Z,47.32
2018-07-31T11:34:09.150Z,47.26
2018-07-31T11:35:09.797Z,47.42
2018-07-31T11:36:11.127Z,46.62
2018-07-31T11:37:10.108Z,45.92
2018-07-31T11:38:10.787Z,45.08
2018-07-31T11:39:09.600Z,44.49
2018-07-31T11:40:09.830Z,44.75
2018-07-31T11:41:10.187Z,45.12
2018-07-31T11:42:10.248Z,45.37
2018-07-31T11:43:10.439Z,45.40
2018-07-31T11:44:10.662Z,45.41
2018-07-31T11:45:10.844Z,45.47
2018-07-31T11:46:11.037Z,45.16
2018-07-31T11:47:11.239Z,44.01
2018-07-31T11:48:12.104Z,43.80
2018-07-31T11:49:11.977Z,43.24
2018-07-31T11:50:11.824Z,42.76
2018-07-31T11:51:12.461Z,42.70
2018-07-31T11:52:12.136Z,42.55
2018-07-31T11:53:12.347Z,42.72
2018-07-31T11:54:12.536Z,42.69
2018-07-31T11:55:12.761Z,42.47
2018-07-31T11:56:12.952Z,42.47
2018-07-31T11:57:13.146Z,42.24
2018-07-31T11:58:13.348Z,42.07
2018-07-31T11:59:13.531Z,42.09
2018-07-31T12:00:13.719Z,41.95
2018-07-31T12:01:13.912Z,41.90
2018-07-31T12:02:14.128Z,41.80
2018-07-31T12:03:14.331Z,41.60
2018-07-31T12:04:14.583Z,41.40
2018-07-31T12:05:14.719Z,41.37
2018-07-31T12:06:14.913Z,41.43
2018-07-31T12:07:15.101Z,41.33
2018-07-31T12:08:15.288Z,41.26
2018-07-31T12:09:15.487Z,41.31
2018-07-31T12:10:15.822Z,41.21
2018-07-31T12:11:16.002Z,41.15
2018-07-31T12:12:16.079Z,40.97
2018-07-31T12:13:16.240Z,40.91
2018-07-31T12:14:16.438Z,40.77
2018-07-31T12:15:17.209Z,40.54
2018-07-31T12:16:18.121Z,40.47
2018-07-31T12:17:16.981Z,40.35
2018-07-31T12:18:17.142Z,40.49
2018-07-31T12:19:17.269Z,40.44
2018-07-31T12:20:17.625Z,40.26
2018-07-31T12:21:17.973Z,40.20
2018-07-31T12:22:18.051Z,40.11
2018-07-31T12:23:18.015Z,40.08
2018-07-31T12:24:18.255Z,40.12
2018-07-31T12:25:18.545Z,40.05
2018-07-31T12:26:18.758Z,40.16
2018-07-31T12:27:18.792Z,40.18
2018-07-31T12:28:19.366Z,40.26
2018-07-31T12:29:19.730Z,40.27
2018-07-31T12:30:19.668Z,40.38
2018-07-31T12:31:19.846Z,40.51
2018-07-31T12:32:20.212Z,40.46
2018-07-31T12:33:21.066Z,40.50
2018-07-31T12:34:21.840Z,40.35
2018-07-31T12:35:21.323Z,40.30
2018-07-31T12:36:22.115Z,40.26
2018-07-31T12:37:22.113Z,40.06
2018-07-31T12:38:21.618Z,39.87
2018-07-31T12:39:22.071Z,39.87
2018-07-31T12:40:22.554Z,39.85
2018-07-31T12:41:22.782Z,39.67
2018-07-31T12:42:22.490Z,39.77
2018-07-31T12:43:23.077Z,39.53
2018-07-31T12:44:22.979Z,39.62
2018-07-31T12:45:23.166Z,39.49
2018-07-31T12:46:23.059Z,39.36
2018-07-31T12:47:23.822Z,39.31
2018-07-31T12:48:23.543Z,39.21
2018-07-31T12:49:23.174Z,39.15
2018-07-31T12:50:23.155Z,38.92
2018-07-31T12:51:24.366Z,38.82
2018-07-31T12:52:24.065Z,38.76
2018-07-31T12:53:23.804Z,38.82
2018-07-31T12:54:23.808Z,38.77